ADDS METAR Data INFO
IDs: Format: Raw Decoded Include TAF

Data at: 0950 UTC 25 Jun 2018

KSCF 250935Z AUTO 16012KT 9SM FEW018 28/24 A3002 RMK A01
KSCF 250915Z AUTO 16010G19KT 8SM FEW018 28/25 A3002 RMK A01
KSCF 250855Z AUTO 16011G19KT 9SM FEW019 28/25 A3002 RMK A01
KSCF 250835Z AUTO 15008G18KT 120V190 8SM SCT019 28/25 A3001 RMK A01
KSCF 250815Z AUTO 16011G17KT 9SM FEW019 28/24 A3003 RMK A01
KSCF 250755Z AUTO 16014G21KT 140V200 9SM FEW019 28/24 A3002 RMK A01
KSCF 250735Z AUTO 16014G20KT 8SM FEW021 28/24 A3002 RMK A01
KSCF 250715Z AUTO 16019KT 8SM SCT020 28/25 A3002 RMK A01
KSCF 250655Z AUTO 16018KT 9SM FEW020 29/25 A3002 RMK A01
KSCF 250635Z AUTO 16014KT 9SM FEW020 29/24 A3003 RMK A01
KSCF 250615Z AUTO 15015KT 9SM CLR 29/24 A3004 RMK A01
KSCF 250555Z AUTO 15014KT 9SM CLR 29/25 A3003 RMK A01
KSCF 250535Z AUTO 16015KT 9SM CLR 28/24 A3003 RMK A01
KSCF 250515Z AUTO 16016KT 9SM CLR 29/24 A3003 RMK A01
KSCF 250455Z AUTO 15015KT 9SM FEW022 29/24 A3004 RMK A01
KSCF 250435Z AUTO 15016KT 9SM CLR 29/24 A3004 RMK A01
KSCF 250415Z AUTO 15015KT 9SM CLR 29/24 A3003 RMK A01
KSCF 250355Z AUTO 14014KT 9SM FEW021 SCT028 29/24 A3003 RMK A01
KSCF 250335Z AUTO 15012KT 9SM SCT021 SCT026 BKN031 29/25 A3003 RMK A01
KSCF 250315Z AUTO 15014KT 9SM SCT022 SCT027 29/25 A3002 RMK A01
KSCF 250255Z AUTO 15012KT 9SM BKN024 BKN029 29/24 A3002 RMK A01
KSCF 250235Z AUTO 15011KT 9SM SCT024 SCT031 29/24 A3002 RMK A01
KSCF 250215Z AUTO 15011KT 9SM SCT024 SCT028 29/25 A3002 RMK A01
KSCF 250155Z AUTO 15012KT 9SM SCT022 SCT030 29/24 A3001 RMK A01
KSCF 250135Z AUTO 16014KT SCT021 BKN026 29/25 A3000 RMK A01
KSCF 250115Z AUTO 16013G18KT 9SM FEW021 29/24 A2999 RMK A01
KSCF 250055Z AUTO 16014G19KT 9SM FEW021 29/25 A2998 RMK A01
KSCF 250035Z AUTO 16014KT 10SM CLR 29/24 A2998 RMK A01
KSCF 250015Z AUTO 16016KT 9SM FEW021 29/25 A2997 RMK A01
KSCF 242355Z AUTO 16012KT 9SM SCT021 29/24 A2998 RMK A01
KSCF 242335Z AUTO 15015KT 9SM FEW020 FEW025 29/25 A2998 RMK A01
KSCF 242315Z AUTO 16015KT 9SM FEW018 29/25 A2998 RMK A01
KSCF 242255Z AUTO 16013KT 9SM SCT019 SCT026 29/25 A2999 RMK A01
KSCF 242235Z AUTO 16014KT 9SM SCT021 SCT028 29/25 A2999 RMK A01
KSCF 242215Z AUTO 15012KT 9SM SCT020 BKN027 29/25 A3001 RMK A01
KSCF 242155Z AUTO 16010KT 9SM CLR 30/25 A3001 RMK A01
KSCF 242135Z AUTO 16014KT 9SM FEW019 30/25 A3001 RMK A01
KSCF 242115Z AUTO 16014KT 9SM FEW019 FEW035 29/25 A3001 RMK A01
KSCF 242055Z AUTO 15015KT 9SM FEW019 FEW035 29/25 A3002 RMK A01
KSCF 242035Z AUTO 16016KT 9SM FEW018 29/25 A3002 RMK A01
KSCF 242015Z AUTO 16014KT 9SM SCT018 29/25 A3002 RMK A01
KSCF 241955Z AUTO 16014KT 9SM SCT019 29/25 A3002 RMK A01
KSCF 241935Z AUTO 16012KT 9SM FEW019 29/25 A3003 RMK A01
KSCF 241915Z AUTO 16013KT 10SM FEW018 29/25 A3003 RMK A01
KSCF 241855Z AUTO 15010KT 9SM CLR 29/25 A3003 RMK A01
KSCF 241835Z AUTO 15009KT 10SM CLR 29/24 A3003 RMK A01
KSCF 241815Z AUTO 15015KT 8SM CLR 29/25 A3004 RMK A01
KSCF 241755Z AUTO 16006KT 10SM CLR 30/25 A3005 RMK A01
KSCF 241735Z AUTO 16007KT 10SM CLR 30/25 A3005 RMK A01
KSCF 241715Z AUTO 16007KT 10SM CLR 30/25 A3004 RMK A01
KSCF 241655Z AUTO 16009KT 10SM CLR 30/25 A3004 RMK A01
KSCF 241635Z AUTO VRB06G12KT 10SM FEW019 FEW032 30/25 A3003 RMK A01
KSCF 241615Z AUTO 16008KT 10SM FEW020 30/25 A3003 RMK A01
KSCF 241555Z AUTO VRB04G16KT 9SM FEW019 FEW027 30/25 A3003 RMK A01
KSCF 241535Z AUTO 16008G15KT 9SM FEW018 FEW024 SCT041 30/25 A3002 RMK A01
KSCF 241515Z AUTO VRB03KT 10SM CLR 30/25 A3002 RMK A01
KSCF 241455Z AUTO 00000KT 10SM CLR 30/24 A3001 RMK A01
KSCF 241435Z AUTO VRB06G12KT 10SM FEW020 30/24 A3001 RMK A01
KSCF 241415Z AUTO VRB06KT 10SM FEW019 30/24 A3000 RMK A01
KSCF 241355Z AUTO VRB05KT 10SM CLR 29/24 A2999 RMK A01
KSCF 241335Z AUTO VRB04KT 10SM FEW018 FEW025 29/25 A2998 RMK A01
KSCF 241315Z AUTO VRB04G10KT 10SM FEW019 29/25 A2998 RMK A01
KSCF 241255Z AUTO VRB04KT 10SM SCT019 SCT024 29/25 A2998 RMK A01
KSCF 241235Z AUTO 00000KT 9SM SCT020 29/25 A2999 RMK A01
KSCF 241215Z AUTO VRB03KT 9SM FEW018 29/25 A2998 RMK A01
KSCF 241155Z AUTO VRB04G10KT 9SM CLR 29/25 A2998 RMK A01
KSCF 241135Z AUTO VRB04KT 9SM FEW020 28/25 A2998 RMK A01
KSCF 241115Z AUTO VRB03KT 9SM FEW019 FEW026 28/25 A2998 RMK A01
KSCF 241055Z AUTO VRB04G12KT 9SM FEW020 FEW026 28/24 A2998 RMK A01
KSCF 241035Z AUTO VRB03KT 9SM CLR 28/25 A2998 RMK A01
KSCF 241015Z AUTO VRB05G10KT 9SM CLR 28/24 A2998 RMK A01
KSCF 240955Z AUTO VRB04G11KT 9SM FEW020 28/25 A2997 RMK A01
KSCF 240935Z AUTO VRB04G11KT 8SM BKN019 BKN026 BKN032 28/25 A2997 RMK A01
KSCF 240915Z AUTO VRB04G11KT 7SM BKN017 BKN022 OVC029 28/25 A2996 RMK A01
KSCF 240855Z AUTO VRB04KT 8SM BKN016 29/26 A2996 RMK A01
KSCF 240835Z AUTO VRB05G11KT 9SM SCT017 29/25 A2996 RMK A01
KSCF 240815Z AUTO VRB05G13KT 8SM FEW016 29/25 A2995 RMK A01
KSCF 240755Z AUTO VRB05KT 8SM SCT017 28/25 A2996 RMK A01
KSCF 240735Z AUTO VRB04G11KT 9SM FEW018 29/25 A2996 RMK A01
KSCF 240715Z AUTO VRB04G12KT 8SM SCT018 SCT024 29/25 A2995 RMK A01
KSCF 240655Z AUTO VRB06G16KT 8SM BKN017 BKN025 BKN035 29/25 A2995 RMK A01
KSCF 240635Z AUTO 17009G21KT 140V250 8SM SCT017 BKN029 OVC055 29/26 A2995 RMK A01
KSCF 240615Z AUTO VRB06KT 8SM FEW019 SCT039 BKN055 29/26 A2995 RMK A01
KSCF 240555Z AUTO VRB04G15KT 8SM FEW017 SCT022 BKN044 29/25 A2995 RMK A01
KSCF 240535Z AUTO 16016G22KT 8SM SCT016 29/26 A2995 RMK A01
KSCF 240515Z AUTO 16018KT 8SM CLR 29/25 A2995 RMK A01
KSCF 240455Z AUTO 16014G21KT 8SM FEW016 FEW023 29/25 A2996 RMK A01
KSCF 240435Z AUTO 16014G22KT 8SM FEW017 FEW023 29/25 A2996 RMK A01
KSCF 240415Z AUTO 16015KT 9SM FEW018 FEW023 29/25 A2996 RMK A01
KSCF 240355Z AUTO 16017KT 9SM FEW018 FEW024 FEW030 29/26 A2995 RMK A01
KSCF 240335Z AUTO 16016KT 9SM FEW018 FEW023 SCT030 29/26 A2995 RMK A01
KSCF 240315Z AUTO 16016KT 9SM SCT021 29/25 A2995 RMK A01
KSCF 240255Z AUTO 16011KT 10SM CLR 29/25 A2995 RMK A01
KSCF 240235Z AUTO 16012KT 10SM FEW018 28/25 A2994 RMK A01
KSCF 240215Z AUTO 16013KT 10SM SCT018 29/25 A2993 RMK A01
KSCF 240155Z AUTO 16011KT 10SM CLR 29/25 A2992 RMK A01
KSCF 240135Z AUTO VRB06G13KT 10SM CLR 28/24 A2992 RMK A01
KSCF 240115Z AUTO 15006G12KT 10SM CLR 29/24 A2992 RMK A01
KSCF 240055Z AUTO 16008G14KT 10SM CLR 29/24 A2992 RMK A01
KSCF 240035Z AUTO VRB05G10KT 10SM CLR 29/24 A2992 RMK A01
KSCF 240015Z AUTO 00000KT 10SM CLR 29/24 A2992 RMK A01
KSCF 232355Z AUTO 00000KT 10SM CLR 29/24 A2992 RMK A01
KSCF 232335Z AUTO 00000KT 10SM CLR 29/24 A2992 RMK A01
KSCF 232315Z AUTO VRB04KT 10SM CLR 29/24 A2992 RMK A01
KSCF 232255Z AUTO VRB06KT 10SM FEW020 29/24 A2993 RMK A01
KSCF 232235Z AUTO VRB04KT 10SM FEW020 30/24 A2993 RMK A01
KSCF 232215Z AUTO VRB03G10KT 10SM FEW022 FEW031 29/24 A2994 RMK A01
KSCF 232155Z AUTO 00000KT 10SM FEW020 29/24 A2994 RMK A01